Time;durP1;ratioP1;P1;durP2;ratioP2;P2;SDS_P1;SDS_P2;PMS_P1;PMS_P2;Temp;Humidity;BMP_temperature;BMP_pressure;BME280_temperature;BME280_humidity;BME280_pressure;Samples;Min_cycle;Max_cycle;Signal;HPM_P1;HPM_P2
2021/03/25 00:01:13;;;;;;;89.15;53.55;;;5.40;99.90;;;;;;4146776;28;20500;-83
2021/03/25 00:03:17;;;;;;;91.88;51.92;;;5.40;99.90;;;;;;4146366;28;20036;-82
2021/03/25 00:05:20;;;;;;;93.53;54.03;;;5.30;99.90;;;;;;4146424;28;20029;-83
2021/03/25 00:07:21;;;;;;;81.30;48.05;;;5.30;99.90;;;;;;4145450;28;20456;-84
2021/03/25 00:09:38;;;;;;;94.00;54.40;;;5.10;99.90;;;;;;4138587;28;20041;-84
2021/03/25 00:11:38;;;;;;;99.55;56.30;;;5.10;99.90;;;;;;4140928;28;20060;-84
2021/03/25 00:13:40;;;;;;;91.22;55.78;;;5.10;99.90;;;;;;4146326;28;20026;-84
2021/03/25 00:15:41;;;;;;;86.13;53.50;;;5.10;99.90;;;;;;4144532;28;20104;-83
2021/03/25 00:17:41;;;;;;;101.18;56.42;;;5.00;99.90;;;;;;4145395;28;20045;-83
2021/03/25 00:19:42;;;;;;;99.88;60.47;;;5.10;99.90;;;;;;4144618;28;20030;-84
2021/03/25 00:21:43;;;;;;;97.10;57.80;;;5.10;99.90;;;;;;4145662;28;20468;-83
2021/03/25 00:23:44;;;;;;;110.45;61.53;;;5.10;99.90;;;;;;4145751;28;20421;-83
2021/03/25 00:25:45;;;;;;;98.03;58.78;;;5.10;99.90;;;;;;4145865;28;20511;-83
2021/03/25 00:27:45;;;;;;;95.15;56.20;;;5.10;99.90;;;;;;4147323;28;20121;-83
2021/03/25 00:29:46;;;;;;;101.47;59.00;;;5.10;99.90;;;;;;4147278;28;20030;-83
2021/03/25 00:31:47;;;;;;;94.63;56.60;;;5.10;99.90;;;;;;4147383;28;20165;-83
2021/03/25 00:33:48;;;;;;;101.75;62.50;;;5.20;99.90;;;;;;4145843;28;20038;-82
2021/03/25 00:35:50;;;;;;;92.00;59.22;;;5.20;99.90;;;;;;4147444;28;20072;-83
2021/03/25 00:37:50;;;;;;;94.95;54.95;;;5.20;99.90;;;;;;4147681;28;20495;-82
2021/03/25 00:39:51;;;;;;;94.78;55.40;;;5.20;99.90;;;;;;4145975;28;20026;-83
2021/03/25 00:41:52;;;;;;;102.03;57.70;;;5.20;99.90;;;;;;4147365;28;20033;-83
2021/03/25 00:43:53;;;;;;;91.53;54.38;;;5.20;99.90;;;;;;4146078;28;20041;-83
2021/03/25 00:45:57;;;;;;;99.03;59.05;;;5.20;99.90;;;;;;4147309;28;20115;-83
2021/03/25 00:47:58;;;;;;;93.70;58.72;;;5.20;99.90;;;;;;4145831;28;20030;-84
2021/03/25 00:49:59;;;;;;;86.18;55.38;;;5.30;99.90;;;;;;4145948;28;20033;-83
2021/03/25 00:52:00;;;;;;;99.15;58.75;;;5.30;99.90;;;;;;4147181;28;20604;-83
2021/03/25 00:54:03;;;;;;;86.60;53.15;;;5.30;99.90;;;;;;4147522;28;20034;-84
2021/03/25 00:56:06;;;;;;;90.93;56.63;;;5.30;99.90;;;;;;4146329;28;20136;-83
2021/03/25 00:58:06;;;;;;;92.50;56.75;;;5.40;99.90;;;;;;4146445;28;20042;-82
2021/03/25 01:00:08;;;;;;;104.53;59.42;;;5.40;99.90;;;;;;4145545;28;20036;-82
2021/03/25 01:02:09;;;;;;;98.95;60.13;;;5.40;99.90;;;;;;4147064;28;20069;-83
2021/03/25 01:04:09;;;;;;;118.18;69.05;;;5.60;99.90;;;;;;4145175;28;20432;-83
2021/03/25 01:06:10;;;;;;;105.45;66.40;;;5.60;99.90;;;;;;4145442;28;20041;-83
2021/03/25 01:08:11;;;;;;;92.70;60.78;;;5.70;99.90;;;;;;4145256;28;20481;-83
2021/03/25 01:10:16;;;;;;;97.18;60.92;;;5.80;99.90;;;;;;4131355;28;20034;-83
2021/03/25 01:12:17;;;;;;;93.80;60.22;;;5.80;99.90;;;;;;4145309;28;20065;-83
2021/03/25 01:14:20;;;;;;;92.78;58.85;;;5.80;99.90;;;;;;4144107;28;20022;-83
2021/03/25 01:16:29;;;;;;;91.47;56.15;;;5.80;99.90;;;;;;4145000;28;20030;-83
2021/03/25 01:18:31;;;;;;;96.47;59.63;;;5.80;99.90;;;;;;4143820;28;20393;-83
2021/03/25 01:20:36;;;;;;;96.22;62.22;;;5.90;99.90;;;;;;4143614;28;20030;-83
2021/03/25 01:22:36;;;;;;;91.40;55.80;;;6.00;99.90;;;;;;4145328;28;20489;-83
2021/03/25 01:24:37;;;;;;;81.75;54.42;;;6.00;99.90;;;;;;4144859;28;20044;-83
2021/03/25 01:26:38;;;;;;;86.65;55.58;;;6.10;99.90;;;;;;4143726;28;20108;-83
2021/03/25 01:28:39;;;;;;;92.25;56.35;;;6.10;99.90;;;;;;4143686;28;20397;-83
2021/03/25 01:30:40;;;;;;;92.88;55.45;;;6.10;99.90;;;;;;4143701;28;20037;-83
2021/03/25 01:32:41;;;;;;;87.10;54.55;;;6.20;99.90;;;;;;4146181;28;20546;-83
2021/03/25 01:34:41;;;;;;;102.38;59.75;;;6.30;99.90;;;;;;4142858;28;20037;-83
2021/03/25 01:36:42;;;;;;;93.32;57.88;;;6.30;99.90;;;;;;4143638;28;20419;-83
2021/03/25 01:38:43;;;;;;;87.82;54.67;;;6.40;99.90;;;;;;4144807;28;20093;-83
2021/03/25 01:40:49;;;;;;;86.88;56.13;;;6.50;99.90;;;;;;4143455;28;20034;-83
2021/03/25 01:42:50;;;;;;;91.03;56.70;;;6.60;99.90;;;;;;4142215;28;20536;-82
2021/03/25 01:44:50;;;;;;;89.22;56.92;;;6.60;99.90;;;;;;4144816;28;20026;-83
2021/03/25 01:46:51;;;;;;;92.28;57.08;;;6.70;99.90;;;;;;4143620;28;20113;-83
2021/03/25 01:48:57;;;;;;;88.28;54.95;;;6.70;99.90;;;;;;4144766;28;20032;-83
2021/03/25 01:51:07;;;;;;;78.00;50.90;;;6.70;99.90;;;;;;4143701;28;20452;-83
2021/03/25 01:54:01;;;;;;;90.15;52.30;;;6.80;99.90;;;;;;4140150;28;20046;-83
2021/03/25 01:56:23;;;;;;;80.63;49.60;;;6.90;99.90;;;;;;4127262;28;20033;-83
2021/03/25 01:58:45;;;;;;;78.90;50.83;;;7.00;99.90;;;;;;4139098;28;20065;-82
2021/03/25 02:01:09;;;;;;;81.90;52.25;;;7.00;99.90;;;;;;4146271;28;20034;-83
2021/03/25 02:03:55;;;;;;;81.53;51.50;;;7.10;99.90;;;;;;4142721;28;20056;-83
2021/03/25 02:06:10;;;;;;;74.30;45.90;;;7.10;99.90;;;;;;4160569;28;20038;-82
2021/03/25 02:08:32;;;;;;;77.70;48.30;;;7.10;99.90;;;;;;4144464;28;20022;-82
2021/03/25 02:10:44;;;;;;;77.90;48.00;;;7.20;99.90;;;;;;4129099;28;20026;-83
2021/03/25 02:13:32;;;;;;;83.70;50.27;;;7.20;99.90;;;;;;4136928;28;20033;-83
2021/03/25 02:15:58;;;;;;;87.57;51.53;;;7.20;99.90;;;;;;4096801;29;20067;-83
2021/03/25 02:18:02;;;;;;;90.88;55.28;;;7.20;99.90;;;;;;4134196;28;20513;-83
2021/03/25 02:20:40;;;;;;;87.75;50.28;;;7.20;99.90;;;;;;4147509;28;20026;-83
2021/03/25 02:23:02;;;;;;;89.30;55.22;;;7.20;99.90;;;;;;4150398;28;20030;-83
2021/03/25 02:25:10;;;;;;;82.05;52.22;;;7.20;99.90;;;;;;4145291;28;20034;-83
2021/03/25 02:27:30;;;;;;;91.97;55.35;;;7.20;99.90;;;;;;4147958;28;20070;-83
2021/03/25 02:29:37;;;;;;;92.50;53.63;;;7.20;99.90;;;;;;4147546;28;20038;-84
2021/03/25 02:31:41;;;;;;;89.57;55.90;;;7.20;99.90;;;;;;4146280;28;20770;-83
2021/03/25 02:33:47;;;;;;;83.55;55.65;;;7.20;99.90;;;;;;4147745;28;20112;-83
2021/03/25 02:35:55;;;;;;;87.15;55.58;;;7.20;99.90;;;;;;4147382;28;20034;-84
2021/03/25 02:38:31;;;;;;;80.53;55.20;;;7.20;99.90;;;;;;4147867;28;20109;-84
2021/03/25 02:40:49;;;;;;;90.40;59.97;;;7.10;99.90;;;;;;4124374;28;20497;-84
2021/03/25 02:43:13;;;;;;;91.40;56.08;;;7.00;99.90;;;;;;4147908;28;20057;-83
2021/03/25 02:45:26;;;;;;;86.57;54.38;;;7.00;99.90;;;;;;4142830;28;20030;-82
2021/03/25 02:47:28;;;;;;;86.17;54.27;;;6.90;99.90;;;;;;4149248;28;20026;-82
2021/03/25 02:49:36;;;;;;;88.47;57.35;;;6.90;99.90;;;;;;4149030;28;20030;-83
2021/03/25 02:51:40;;;;;;;85.97;56.83;;;6.90;99.90;;;;;;4148885;28;20496;-83
2021/03/25 02:53:43;;;;;;;94.63;57.95;;;6.90;99.90;;;;;;4164199;28;20393;-83
2021/03/25 02:55:44;;;;;;;87.78;58.92;;;6.90;99.90;;;;;;4149452;28;20033;-82
2021/03/25 02:58:00;;;;;;;103.97;60.45;;;6.90;99.90;;;;;;4149051;28;20080;-83
2021/03/25 03:00:07;;;;;;;87.05;59.78;;;6.80;99.90;;;;;;4163890;28;20034;-83
2021/03/25 03:02:24;;;;;;;88.38;55.95;;;6.80;99.90;;;;;;4148535;28;20121;-84
2021/03/25 03:04:37;;;;;;;100.18;59.78;;;6.80;99.90;;;;;;4148622;28;20038;-82
2021/03/25 03:06:42;;;;;;;96.88;58.30;;;6.70;99.90;;;;;;4148835;28;20036;-81
2021/03/25 03:08:46;;;;;;;91.05;57.05;;;6.70;99.90;;;;;;4148761;28;20037;-82
2021/03/25 03:10:59;;;;;;;96.72;58.35;;;6.70;99.90;;;;;;4163562;28;20037;-82
2021/03/25 03:13:02;;;;;;;87.95;56.53;;;6.70;99.90;;;;;;4163905;28;20069;-83
2021/03/25 03:15:03;;;;;;;;;;;6.70;99.90;;;;;;4148966;28;20092;-83
2021/03/25 03:17:24;;;;;;;85.75;55.33;;;6.60;99.90;;;;;;4155155;28;20303;-83
2021/03/25 03:19:39;;;;;;;95.78;59.55;;;6.60;99.90;;;;;;4163501;28;20125;-83
2021/03/25 03:21:44;;;;;;;93.32;60.33;;;6.60;99.90;;;;;;4163382;28;20042;-82
2021/03/25 03:23:45;;;;;;;85.72;58.22;;;6.60;99.90;;;;;;4164721;28;20389;-83
2021/03/25 03:25:46;;;;;;;91.95;56.10;;;6.60;99.90;;;;;;4163292;28;20500;-83
2021/03/25 03:27:53;;;;;;;98.30;60.03;;;6.60;99.90;;;;;;4163488;28;20075;-82
2021/03/25 03:29:57;;;;;;;91.60;58.10;;;6.60;99.90;;;;;;4163570;28;20392;-83
2021/03/25 03:32:00;;;;;;;88.30;56.90;;;6.60;99.90;;;;;;4163441;28;20037;-83
2021/03/25 03:34:05;;;;;;;96.68;61.30;;;6.60;99.90;;;;;;4163241;28;20088;-83
2021/03/25 03:36:12;;;;;;;93.22;59.63;;;6.60;99.90;;;;;;4163105;28;20030;-83
2021/03/25 03:38:21;;;;;;;91.63;57.03;;;6.60;99.90;;;;;;4163565;28;20134;-83
2021/03/25 03:40:30;;;;;;;91.80;58.22;;;6.60;99.90;;;;;;4164808;28;20040;-83
2021/03/25 03:42:31;;;;;;;92.78;58.70;;;6.60;99.90;;;;;;4164137;28;20042;-84
2021/03/25 03:44:38;;;;;;;91.57;58.35;;;6.60;99.90;;;;;;4157828;28;20037;-84
2021/03/25 03:46:42;;;;;;;87.05;56.08;;;6.60;99.90;;;;;;4164280;28;20033;-83
2021/03/25 03:49:04;;;;;;;91.20;57.92;;;6.60;99.90;;;;;;4164426;28;20504;-83
2021/03/25 03:51:09;;;;;;;93.35;55.88;;;6.60;99.90;;;;;;4164215;28;20052;-83
2021/03/25 03:53:10;;;;;;;93.22;56.40;;;6.60;99.90;;;;;;4162724;28;20030;-83
2021/03/25 03:55:12;;;;;;;100.30;60.78;;;6.60;99.90;;;;;;4162986;28;20029;-83
2021/03/25 03:57:47;;;;;;;104.95;60.03;;;6.60;99.90;;;;;;4162449;28;20045;-83
2021/03/25 04:00:12;;;;;;;99.22;62.28;;;6.60;99.90;;;;;;4160278;28;20495;-83
2021/03/25 04:02:34;;;;;;;;;;;6.60;99.90;;;;;;4162800;28;20099;-84
2021/03/25 04:04:45;;;;;;;93.03;58.92;;;6.60;99.90;;;;;;4162719;28;20066;-83
2021/03/25 04:06:55;;;;;;;99.63;60.65;;;6.60;99.90;;;;;;4162724;28;20022;-83
2021/03/25 04:09:39;;;;;;;99.38;59.67;;;6.60;99.90;;;;;;4163917;28;20140;-83
2021/03/25 04:11:50;;;;;;;90.85;56.88;;;6.60;99.90;;;;;;4094434;28;20045;-82
2021/03/25 04:14:04;;;;;;;89.45;54.97;;;6.60;99.90;;;;;;4097533;28;20031;-84
2021/03/25 04:16:06;;;;;;;92.85;59.75;;;6.60;99.90;;;;;;4119771;28;21186;-83
2021/03/25 04:18:15;;;;;;;99.97;63.70;;;6.70;99.90;;;;;;4162618;28;20077;-84
2021/03/25 04:20:21;;;;;;;105.82;60.80;;;6.70;99.90;;;;;;4161806;28;20079;-84
2021/03/25 04:22:26;;;;;;;89.43;59.30;;;6.80;99.90;;;;;;4162500;28;20052;-84
2021/03/25 04:24:32;;;;;;;94.18;56.97;;;6.80;99.90;;;;;;4162343;28;20030;-84
2021/03/25 04:26:42;;;;;;;90.03;57.88;;;6.80;99.90;;;;;;4162543;28;20034;-84
2021/03/25 04:29:01;;;;;;;95.55;59.65;;;6.80;99.90;;;;;;4150679;28;20072;-84
2021/03/25 04:31:05;;;;;;;88.25;58.70;;;6.90;99.90;;;;;;4161857;28;20062;-83
2021/03/25 04:33:06;;;;;;;98.70;60.28;;;6.90;99.90;;;;;;4161731;28;20030;-84
2021/03/25 04:35:07;;;;;;;102.32;61.78;;;6.80;99.90;;;;;;4162362;28;20488;-84
2021/03/25 04:37:08;;;;;;;93.43;59.47;;;6.80;99.90;;;;;;4162495;28;20033;-84
2021/03/25 04:39:10;;;;;;;98.45;59.10;;;6.70;99.90;;;;;;4162283;28;20055;-84
2021/03/25 04:41:16;;;;;;;96.30;60.67;;;6.70;99.90;;;;;;4162218;28;20021;-84
2021/03/25 04:43:19;;;;;;;95.72;61.25;;;6.70;99.90;;;;;;4162671;28;20028;-83
2021/03/25 04:45:26;;;;;;;95.65;58.92;;;6.80;99.90;;;;;;4163660;28;20026;-84
2021/03/25 04:47:33;;;;;;;86.47;57.35;;;6.80;99.90;;;;;;4160911;28;20663;-84
2021/03/25 04:49:59;;;;;;;96.43;58.42;;;6.80;99.90;;;;;;4162242;28;20017;-84
2021/03/25 04:52:03;;;;;;;101.18;60.72;;;6.90;99.90;;;;;;4170064;28;20036;-84
2021/03/25 04:54:33;;;;;;;91.95;55.22;;;6.90;99.90;;;;;;4161745;28;20045;-82
2021/03/25 04:56:34;;;;;;;101.68;57.30;;;6.90;99.90;;;;;;4162570;28;20083;-83
2021/03/25 04:58:42;;;;;;;96.20;57.83;;;6.90;99.90;;;;;;4161109;28;20033;-84
2021/03/25 05:00:43;;;;;;;108.43;61.85;;;6.90;99.90;;;;;;4160862;28;20029;-84
2021/03/25 05:02:44;;;;;;;104.35;60.45;;;6.90;99.90;;;;;;4160908;28;20025;-84
2021/03/25 05:04:51;;;;;;;102.15;61.65;;;6.90;99.90;;;;;;4161913;28;20033;-85
2021/03/25 05:06:58;;;;;;;100.82;63.72;;;7.00;99.90;;;;;;4162263;28;20026;-83
2021/03/25 05:08:59;;;;;;;105.32;60.70;;;7.00;99.90;;;;;;4161818;28;20053;-85
2021/03/25 05:11:00;;;;;;;102.22;62.88;;;7.00;99.90;;;;;;4159923;28;20405;-84
2021/03/25 05:13:01;;;;;;;113.43;64.07;;;6.90;99.90;;;;;;4163228;28;20025;-84
2021/03/25 05:15:13;;;;;;;106.43;61.75;;;6.80;99.90;;;;;;4161835;28;20060;-84
2021/03/25 05:17:54;;;;;;;108.50;61.08;;;6.80;99.90;;;;;;4161483;28;20507;-84
2021/03/25 05:20:16;;;;;;;98.82;58.55;;;6.70;99.90;;;;;;4124785;28;20030;-83
2021/03/25 05:22:28;;;;;;;118.97;63.97;;;6.70;99.90;;;;;;4161420;28;20036;-83
2021/03/25 05:25:04;;;;;;;105.35;63.00;;;6.60;99.90;;;;;;4161581;28;20053;-83
2021/03/25 05:27:29;;;;;;;122.03;68.97;;;6.40;99.90;;;;;;4150372;28;20442;-84
2021/03/25 05:29:31;;;;;;;119.53;64.75;;;6.30;99.90;;;;;;4162822;28;20041;-83
2021/03/25 05:31:35;;;;;;;119.72;64.38;;;6.30;99.90;;;;;;4163410;28;20446;-84
2021/03/25 05:33:37;;;;;;;132.65;67.65;;;6.20;99.90;;;;;;4161238;28;20463;-83
2021/03/25 05:35:53;;;;;;;123.03;68.60;;;6.10;99.90;;;;;;4160113;28;20447;-83
2021/03/25 05:37:54;;;;;;;128.05;70.05;;;6.10;99.90;;;;;;4160100;28;20113;-83
2021/03/25 05:39:54;;;;;;;127.82;69.35;;;6.10;99.90;;;;;;4160835;28;20033;-84
2021/03/25 05:42:19;;;;;;;126.75;67.90;;;6.10;99.90;;;;;;4159726;28;20475;-83
2021/03/25 05:44:41;;;;;;;112.20;64.50;;;6.00;99.90;;;;;;4154891;28;20724;-84
2021/03/25 05:47:02;;;;;;;112.40;62.55;;;6.10;99.90;;;;;;4154205;28;20044;-84
2021/03/25 05:49:39;;;;;;;122.22;66.32;;;6.10;99.90;;;;;;4144521;28;20038;-84
2021/03/25 05:52:06;;;;;;;115.35;65.38;;;6.20;99.90;;;;;;4158880;28;20044;-84
2021/03/25 05:54:28;;;;;;;113.80;67.97;;;6.20;99.90;;;;;;4154412;28;20116;-83
2021/03/25 05:57:07;;;;;;;119.25;68.13;;;6.30;99.90;;;;;;4158783;28;20127;-84
2021/03/25 05:59:21;;;;;;;119.82;66.50;;;6.40;99.90;;;;;;4117159;28;20535;-85
2021/03/25 06:01:38;;;;;;;128.48;69.40;;;6.40;99.90;;;;;;4148569;28;20086;-85
2021/03/25 06:03:45;;;;;;;123.03;69.53;;;6.50;99.90;;;;;;4151203;28;20092;-84
2021/03/25 06:05:51;;;;;;;116.63;66.60;;;6.50;99.90;;;;;;4150461;28;20037;-84
2021/03/25 06:08:09;;;;;;;109.72;62.78;;;6.60;99.90;;;;;;4161937;28;20044;-84
2021/03/25 06:10:22;;;;;;;117.45;67.20;;;6.60;99.90;;;;;;4150548;28;20500;-84
2021/03/25 06:12:35;;;;;;;118.13;66.55;;;6.60;99.90;;;;;;4161291;28;20101;-84
2021/03/25 06:15:07;;;;;;;128.57;68.25;;;6.60;99.90;;;;;;4162418;28;20040;-84
2021/03/25 06:17:27;;;;;;;125.95;66.53;;;6.60;99.90;;;;;;4160167;28;20053;-84
2021/03/25 06:20:02;;;;;;;116.93;67.35;;;6.60;99.90;;;;;;4147113;28;20485;-84
2021/03/25 06:22:12;;;;;;;114.13;65.68;;;6.60;99.90;;;;;;4148407;28;20049;-85
2021/03/25 06:24:51;;;;;;;126.70;67.50;;;6.60;99.90;;;;;;4162337;28;20034;-84
2021/03/25 06:27:03;;;;;;;124.30;66.95;;;6.60;99.90;;;;;;4162248;28;20042;-82
2021/03/25 06:29:22;;;;;;;121.20;68.30;;;6.50;99.90;;;;;;4150775;28;20033;-85
2021/03/25 06:31:41;;;;;;;130.48;65.90;;;6.40;99.90;;;;;;4162458;28;20036;-82
2021/03/25 06:33:55;;;;;;;125.20;70.47;;;6.30;99.90;;;;;;4162498;28;20041;-83
2021/03/25 06:36:04;;;;;;;;;;;6.30;99.90;;;;;;4161395;28;20048;-84
2021/03/25 06:38:16;;;;;;;132.55;67.47;;;6.20;99.90;;;;;;4160848;28;19920;-83
2021/03/25 06:40:22;;;;;;;129.50;68.60;;;6.20;99.90;;;;;;4162233;28;20033;-84
2021/03/25 06:42:40;;;;;;;138.02;72.15;;;6.20;99.90;;;;;;4162290;28;20038;-84
2021/03/25 06:44:45;;;;;;;134.10;68.72;;;6.30;99.90;;;;;;4156994;28;20029;-84
2021/03/25 06:46:50;;;;;;;117.90;69.40;;;6.40;99.90;;;;;;4162265;28;20083;-84
2021/03/25 06:49:00;;;;;;;132.13;71.75;;;6.40;99.90;;;;;;4161029;28;20125;-83
2021/03/25 06:51:15;;;;;;;137.85;75.50;;;6.50;99.90;;;;;;4160489;28;20416;-83
2021/03/25 06:53:23;;;;;;;132.30;73.03;;;6.50;99.90;;;;;;4154063;28;20120;-83
2021/03/25 06:55:28;;;;;;;134.93;75.95;;;6.50;99.90;;;;;;4154846;28;20440;-84
2021/03/25 06:57:43;;;;;;;138.23;76.32;;;6.50;99.90;;;;;;4162763;28;20392;-84
2021/03/25 06:59:46;;;;;;;131.50;75.45;;;6.50;99.90;;;;;;4160710;28;20488;-84
2021/03/25 07:01:54;;;;;;;139.18;74.03;;;6.50;99.90;;;;;;4162729;28;20397;-84
2021/03/25 07:03:59;;;;;;;134.98;71.10;;;6.50;99.90;;;;;;4162966;28;20523;-83
2021/03/25 07:06:01;;;;;;;117.57;70.45;;;6.60;99.90;;;;;;4163474;28;20049;-84
2021/03/25 07:08:14;;;;;;;121.85;72.57;;;6.70;99.90;;;;;;4158886;28;20097;-84
2021/03/25 07:10:17;;;;;;;126.10;70.53;;;6.90;99.90;;;;;;4165110;28;20033;-83
2021/03/25 07:12:28;;;;;;;125.07;69.38;;;7.00;99.90;;;;;;4163673;28;20030;-83
2021/03/25 07:14:37;;;;;;;120.38;67.38;;;7.10;99.90;;;;;;4163679;28;20038;-83
2021/03/25 07:16:43;;;;;;;111.90;68.15;;;7.20;99.90;;;;;;4164236;28;20431;-83
2021/03/25 07:18:58;;;;;;;110.55;63.75;;;7.30;99.90;;;;;;4164896;28;20029;-84
2021/03/25 07:21:25;;;;;;;98.68;64.03;;;7.50;99.90;;;;;;4163437;28;20034;-84
2021/03/25 07:23:26;;;;;;;106.90;62.53;;;7.60;99.90;;;;;;4162066;28;20038;-84
2021/03/25 07:25:29;;;;;;;108.78;60.08;;;7.80;99.90;;;;;;4164116;28;20033;-84
2021/03/25 07:27:34;;;;;;;99.22;62.30;;;7.80;99.90;;;;;;4163299;28;20034;-84
2021/03/25 07:29:37;;;;;;;99.53;58.28;;;8.00;99.90;;;;;;4162959;28;20056;-84
2021/03/25 07:31:51;;;;;;;94.30;57.70;;;8.10;99.90;;;;;;4161202;28;20088;-84
2021/03/25 07:33:52;;;;;;;103.40;64.03;;;8.00;99.90;;;;;;4160601;28;20073;-84
2021/03/25 07:36:07;;;;;;;101.40;62.22;;;8.20;99.90;;;;;;4161795;28;20561;-84
2021/03/25 07:38:27;;;;;;;91.40;55.13;;;8.20;99.90;;;;;;4151675;28;20112;-84
2021/03/25 07:40:33;;;;;;;97.85;59.08;;;8.40;99.90;;;;;;4164374;28;20030;-84
2021/03/25 07:42:38;;;;;;;90.03;55.08;;;8.30;99.90;;;;;;4162027;28;20125;-85
2021/03/25 07:44:42;;;;;;;94.60;57.05;;;8.50;99.90;;;;;;4162731;28;20479;-85
2021/03/25 07:46:42;;;;;;;82.00;52.53;;;8.80;99.90;;;;;;4162291;28;20037;-85
2021/03/25 07:48:58;;;;;;;84.63;55.05;;;9.00;99.90;;;;;;4160753;28;20112;-83
2021/03/25 07:51:14;;;;;;;81.35;52.33;;;9.20;99.90;;;;;;4162352;28;20052;-83
2021/03/25 07:53:18;;;;;;;86.88;54.22;;;10.40;99.90;;;;;;4161714;28;20052;-84
2021/03/25 07:55:18;;;;;;;97.80;55.88;;;9.40;99.90;;;;;;4155862;28;20045;-84
2021/03/25 07:57:22;;;;;;;86.07;55.13;;;;;;;;;;4162699;28;20030;-84
2021/03/25 07:59:31;;;;;;;92.55;56.42;;;9.20;99.90;;;;;;4163447;28;20040;-84
2021/03/25 08:01:32;;;;;;;77.78;51.92;;;9.20;99.90;;;;;;4162629;28;20099;-84
2021/03/25 08:03:43;;;;;;;88.63;54.67;;;9.10;99.90;;;;;;4164126;28;20037;-84
2021/03/25 08:05:46;;;;;;;88.72;52.58;;;9.10;99.90;;;;;;4157510;28;20030;-84
2021/03/25 08:07:50;;;;;;;80.63;53.08;;;9.20;99.90;;;;;;4160997;28;20044;-85
2021/03/25 08:09:57;;;;;;;85.15;55.08;;;9.20;99.90;;;;;;4162772;28;20480;-85
2021/03/25 08:12:02;;;;;;;81.95;51.45;;;9.30;99.90;;;;;;4157424;28;20033;-85
2021/03/25 08:14:15;;;;;;;78.45;49.05;;;9.40;99.90;;;;;;4154667;28;20526;-84
2021/03/25 08:16:16;;;;;;;85.95;50.63;;;9.70;99.90;;;;;;4158405;28;20021;-85
2021/03/25 08:18:35;;;;;;;80.15;51.30;;;9.80;99.90;;;;;;4159956;28;20030;-85
2021/03/25 08:21:03;;;;;;;81.43;49.63;;;10.00;99.90;;;;;;4161577;28;20802;-84
2021/03/25 08:23:38;;;;;;;70.70;46.28;;;10.00;99.90;;;;;;4133686;28;20041;-84
2021/03/25 08:25:40;;;;;;;74.28;43.33;;;10.00;99.90;;;;;;4159598;28;20546;-85
2021/03/25 08:28:14;;;;;;;77.50;48.53;;;10.00;99.90;;;;;;4161775;28;20034;-85
2021/03/25 08:30:52;;;;;;;72.53;45.28;;;10.20;99.90;;;;;;4160980;28;20040;-84
2021/03/25 08:33:33;;;;;;;73.28;47.67;;;10.50;99.90;;;;;;4161573;28;20029;-85
2021/03/25 08:35:39;;;;;;;74.25;45.65;;;;;;;;;;4128213;28;20086;-83
2021/03/25 08:38:13;;;;;;;69.43;46.13;;;11.30;99.90;;;;;;4140647;28;20104;-84
2021/03/25 08:40:19;;;;;;;63.13;44.15;;;11.40;99.90;;;;;;4158337;28;20116;-84
2021/03/25 08:42:31;;;;;;;71.55;48.88;;;11.50;99.90;;;;;;4163713;28;20119;-84
2021/03/25 08:44:42;;;;;;;69.15;48.45;;;11.50;99.90;;;;;;4161624;28;20040;-84
2021/03/25 08:46:51;;;;;;;74.07;49.45;;;11.50;99.90;;;;;;4163038;28;20124;-85
2021/03/25 08:49:01;;;;;;;68.95;46.53;;;11.70;99.90;;;;;;4157814;28;20033;-85
2021/03/25 08:51:15;;;;;;;68.50;43.97;;;11.70;99.90;;;;;;4161028;28;20105;-85
2021/03/25 08:53:30;;;;;;;63.92;43.65;;;11.80;99.90;;;;;;4161223;28;20424;-85
2021/03/25 08:55:38;;;;;;;63.15;43.28;;;11.80;99.90;;;;;;4161574;28;20065;-85
2021/03/25 08:57:40;;;;;;;68.35;39.50;;;11.80;99.90;;;;;;4162919;28;20485;-85
2021/03/25 09:00:12;;;;;;;58.05;41.40;;;11.90;99.90;;;;;;4161282;28;20071;-85
2021/03/25 09:02:40;;;;;;;55.08;37.50;;;12.10;99.90;;;;;;4140134;28;20048;-85
2021/03/25 09:04:50;;;;;;;68.97;43.53;;;12.30;99.90;;;;;;4161084;28;20473;-85
2021/03/25 09:06:51;;;;;;;64.93;42.42;;;12.40;99.90;;;;;;4161354;28;20052;-85
2021/03/25 09:09:04;;;;;;;63.88;44.90;;;12.30;99.90;;;;;;4161451;28;20124;-85
2021/03/25 09:11:09;;;;;;;59.42;40.08;;;12.60;99.90;;;;;;4161126;28;20112;-85
2021/03/25 09:13:38;;;;;;;67.78;42.03;;;12.70;99.90;;;;;;4145088;28;20674;-85
2021/03/25 09:15:42;;;;;;;59.95;41.45;;;12.90;99.90;;;;;;4158967;28;20036;-85
2021/03/25 09:17:56;;;;;;;56.13;36.58;;;13.20;99.90;;;;;;4160718;28;20037;-85
2021/03/25 09:19:58;;;;;;;56.22;38.22;;;13.50;99.90;;;;;;4160971;28;20029;-85
2021/03/25 09:22:00;;;;;;;56.90;39.90;;;13.30;99.90;;;;;;4160918;28;20068;-84
2021/03/25 09:24:03;;;;;;;58.20;39.75;;;13.20;99.90;;;;;;4160910;28;20025;-84
2021/03/25 09:26:23;;;;;;;55.67;38.60;;;13.20;99.90;;;;;;4160780;28;20033;-84
2021/03/25 09:28:49;;;;;;;52.88;37.55;;;13.00;99.90;;;;;;4160778;28;20547;-85
2021/03/25 09:30:53;;;;;;;53.90;35.80;;;12.90;99.90;;;;;;4152677;28;20048;-85
2021/03/25 09:32:53;;;;;;;48.72;33.58;;;12.70;99.90;;;;;;4160293;28;20041;-84
2021/03/25 09:34:54;;;;;;;54.65;34.63;;;12.80;99.90;;;;;;4162004;28;20064;-84
2021/03/25 09:37:14;;;;;;;41.97;32.08;;;12.80;99.90;;;;;;4162008;28;20029;-85
2021/03/25 09:39:34;;;;;;;48.17;33.85;;;12.80;99.90;;;;;;4158339;28;20096;-85
2021/03/25 09:41:34;;;;;;;46.05;30.95;;;12.70;99.90;;;;;;4156656;28;20401;-84
2021/03/25 09:43:40;;;;;;;49.53;34.45;;;12.80;99.90;;;;;;4160107;28;20052;-85
2021/03/25 09:45:40;;;;;;;45.28;33.95;;;12.70;99.90;;;;;;4158670;28;20041;-84
2021/03/25 09:47:42;;;;;;;44.80;30.60;;;12.90;99.90;;;;;;4160584;28;20542;-83
2021/03/25 09:49:54;;;;;;;43.33;32.25;;;13.10;99.90;;;;;;4158880;28;20037;-84
2021/03/25 09:52:11;;;;;;;51.10;33.83;;;13.30;99.90;;;;;;4159266;28;20524;-84
2021/03/25 09:54:25;;;;;;;44.75;34.58;;;13.50;99.90;;;;;;4158923;28;20052;-83
2021/03/25 09:56:29;;;;;;;45.80;34.47;;;13.80;99.90;;;;;;4152371;28;20041;-84
2021/03/25 09:58:44;;;;;;;55.92;37.70;;;14.00;99.90;;;;;;4160324;28;20037;-84
2021/03/25 10:00:45;;;;;;;48.55;38.28;;;13.90;99.90;;;;;;4161482;28;20030;-84
2021/03/25 10:02:49;;;;;;;40.53;30.48;;;13.60;99.90;;;;;;4159033;28;20124;-84
2021/03/25 10:05:21;;;;;;;44.05;33.00;;;13.60;99.90;;;;;;4153275;28;20091;-84
2021/03/25 10:07:35;;;;;;;49.03;33.47;;;13.50;99.90;;;;;;4169337;28;20468;-84
2021/03/25 10:09:57;;;;;;;48.40;34.70;;;13.80;99.90;;;;;;4160767;28;20038;-84
2021/03/25 10:12:00;;;;;;;54.00;34.40;;;13.90;99.90;;;;;;4158327;28;20029;-84
2021/03/25 10:14:01;;;;;;;48.67;32.37;;;13.70;99.90;;;;;;4159970;28;20085;-84
2021/03/25 10:16:02;;;;;;;51.92;41.65;;;14.00;99.90;;;;;;4161504;28;20271;-84
2021/03/25 10:18:04;;;;;;;53.25;39.33;;;14.20;99.90;;;;;;4160097;28;20531;-84
2021/03/25 10:20:09;;;;;;;51.75;38.95;;;14.40;99.90;;;;;;4160369;28;20041;-84
2021/03/25 10:22:21;;;;;;;51.55;35.13;;;14.50;99.90;;;;;;4160708;28;20036;-84
2021/03/25 10:24:31;;;;;;;40.28;31.65;;;14.40;99.90;;;;;;4160291;28;20041;-84
2021/03/25 10:26:41;;;;;;;49.42;37.90;;;14.00;99.90;;;;;;4159439;28;20517;-84
2021/03/25 10:28:46;;;;;;;45.92;34.08;;;13.90;99.90;;;;;;4160391;28;20026;-85
2021/03/25 10:30:48;;;;;;;45.58;33.60;;;13.80;99.90;;;;;;4160069;28;20041;-85
2021/03/25 10:32:48;;;;;;;49.25;35.45;;;13.60;99.90;;;;;;4164483;28;20037;-83
2021/03/25 10:34:55;;;;;;;50.38;37.00;;;13.50;99.90;;;;;;4162045;28;20246;-84
2021/03/25 10:37:02;;;;;;;46.88;33.20;;;13.50;99.90;;;;;;4164804;28;20044;-84
2021/03/25 10:39:04;;;;;;;43.90;33.33;;;13.60;99.90;;;;;;4163652;28;20413;-84
2021/03/25 10:41:06;;;;;;;53.38;33.08;;;13.50;99.90;;;;;;4164457;28;20099;-85
2021/03/25 10:43:14;;;;;;;42.90;33.13;;;13.30;99.90;;;;;;4164891;28;20543;-84
2021/03/25 10:45:19;;;;;;;43.65;33.90;;;12.80;99.90;;;;;;4164807;28;20025;-83
2021/03/25 10:47:25;;;;;;;45.38;31.42;;;12.60;99.90;;;;;;4163501;28;20072;-83
2021/03/25 10:49:31;;;;;;;44.50;32.45;;;12.30;99.90;;;;;;4164850;28;20038;-84
2021/03/25 10:51:40;;;;;;;40.55;31.27;;;12.00;99.90;;;;;;4153633;28;20473;-83
2021/03/25 10:53:44;;;;;;;46.85;34.35;;;11.90;99.90;;;;;;4164139;28;20043;-84
2021/03/25 10:55:48;;;;;;;46.17;34.33;;;11.90;99.90;;;;;;4162827;28;20032;-85
2021/03/25 10:57:51;;;;;;;52.38;38.08;;;12.00;99.90;;;;;;4159342;28;20048;-85
2021/03/25 11:00:01;;;;;;;52.90;37.75;;;12.10;99.90;;;;;;4163663;28;20053;-85
2021/03/25 11:02:02;;;;;;;53.28;37.75;;;12.00;99.90;;;;;;4163450;28;20487;-84
2021/03/25 11:04:25;;;;;;;48.85;36.55;;;11.90;99.90;;;;;;4162092;28;20080;-85